Chino Hills, California
Current Conditions -  °F | °C
As of 9:53 PM on Tuesday 25 Nov 2014 (Local Time) from KCNO Reporting Station
Haze Haze  
Wind Chill: 51°   Ceiling: Unl
Heat Index: 51°   Visibility: 6mi
Dew Point: 32°   Wind: 0mph
Humidity: 48%   Direction: NA
Pressure: 30.31"   Gusts: NA
Location:  34°N, 117.75°W
Report Text: KCNO 260553Z 00000KT 6SM HZ CLR 11/00 A3031 RMK AO2 SLP260 T01060000 10239 20083 50003 $
Loading
Personal Weather Stations






























Interactive Weather Map New forecast layout! Learn more

10-Day Weather Forecast

Advertisements
Track Severe Weather on mobile